Time;durP1;ratioP1;P1;durP2;ratioP2;P2;SDS_P1;SDS_P2;PMS_P1;PMS_P2;Temp;Humidity;BMP_temperature;BMP_pressure;BME280_temperature;BME280_humidity;BME280_pressure;Samples;Min_cycle;Max_cycle;Signal;HPM_P1;HPM_P2
2022/03/10 00:00:11;;;;;;;23.05;13.00;;;1.80;99.90;;;;;;5092943;28;20093;-66
2022/03/10 00:02:38;;;;;;;22.90;13.77;;;1.70;99.90;;;;;;5092900;28;20016;-66
2022/03/10 00:05:04;;;;;;;24.30;12.75;;;2.00;99.90;;;;;;5091611;28;20124;-68
2022/03/10 00:07:29;;;;;;;28.15;14.63;;;2.10;99.90;;;;;;5100104;28;20105;-66
2022/03/10 00:09:55;;;;;;;22.33;13.57;;;2.20;99.90;;;;;;5102838;28;20036;-67
2022/03/10 00:12:21;;;;;;;24.00;12.75;;;2.10;99.90;;;;;;5098967;28;20028;-67
2022/03/10 00:14:46;;;;;;;22.73;13.02;;;2.20;99.90;;;;;;5096208;28;20031;-67
2022/03/10 00:17:12;;;;;;;24.15;13.90;;;2.30;99.90;;;;;;5093200;28;20028;-66
2022/03/10 00:19:38;;;;;;;23.10;14.00;;;2.20;99.90;;;;;;5090438;28;20024;-67
2022/03/10 00:22:03;;;;;;;25.58;13.85;;;2.20;99.90;;;;;;5100081;28;20032;-66
2022/03/10 00:24:29;;;;;;;23.27;13.63;;;2.10;99.90;;;;;;5090129;28;20061;-67
2022/03/10 00:26:55;;;;;;;22.45;13.35;;;2.00;99.90;;;;;;5097642;28;20490;-67
2022/03/10 00:29:21;;;;;;;23.25;13.50;;;2.10;99.90;;;;;;5095375;28;20044;-67
2022/03/10 00:31:46;;;;;;;21.77;13.35;;;2.20;99.90;;;;;;5098487;28;20028;-67
2022/03/10 00:34:12;;;;;;;24.73;14.27;;;2.30;99.90;;;;;;5091953;28;20024;-66
2022/03/10 00:36:38;;;;;;;25.92;13.93;;;2.30;99.90;;;;;;5097826;28;20093;-67
2022/03/10 00:39:04;;;;;;;22.77;13.05;;;2.30;99.90;;;;;;5090881;28;20040;-66
2022/03/10 00:41:30;;;;;;;25.45;14.38;;;2.20;99.90;;;;;;5099327;28;20075;-67
2022/03/10 00:43:55;;;;;;;25.20;14.30;;;2.10;99.90;;;;;;5097488;28;20099;-67
2022/03/10 00:46:21;;;;;;;24.40;14.75;;;2.00;99.90;;;;;;5092243;28;20037;-66
2022/03/10 00:48:47;;;;;;;24.88;13.77;;;1.90;99.90;;;;;;5100046;28;20365;-66
2022/03/10 00:51:13;;;;;;;24.73;14.20;;;2.10;99.90;;;;;;5095023;28;20020;-66
2022/03/10 00:53:39;;;;;;;23.27;14.15;;;2.10;99.90;;;;;;5086996;28;20390;-66
2022/03/10 00:56:04;;;;;;;24.95;14.10;;;2.10;99.90;;;;;;5087127;28;20050;-66
2022/03/10 00:58:30;;;;;;;27.77;14.30;;;1.90;99.90;;;;;;5099081;28;20370;-67
2022/03/10 01:00:56;;;;;;;25.83;14.10;;;1.80;99.90;;;;;;5093632;28;20591;-66
2022/03/10 01:03:22;;;;;;;26.88;14.93;;;1.70;99.90;;;;;;5093080;28;20035;-66
2022/03/10 01:05:47;;;;;;;26.30;14.73;;;1.60;99.90;;;;;;5084463;28;20020;-66
2022/03/10 01:08:13;;;;;;;25.67;14.88;;;1.50;99.90;;;;;;5092090;28;20367;-67
2022/03/10 01:10:40;;;;;;;25.38;14.48;;;1.40;99.90;;;;;;5091661;28;20047;-66
2022/03/10 01:13:16;;;;;;;26.75;14.68;;;1.30;99.90;;;;;;5101185;28;20023;-67
2022/03/10 01:15:45;;;;;;;27.00;13.50;;;1.30;99.90;;;;;;5097395;28;20030;-67
2022/03/10 01:18:11;;;;;;;26.23;13.50;;;1.30;99.90;;;;;;5098278;28;20419;-66
2022/03/10 01:20:37;;;;;;;29.75;14.50;;;1.20;99.90;;;;;;5091743;28;20024;-67
2022/03/10 01:23:03;;;;;;;27.08;14.40;;;1.20;99.90;;;;;;5093065;28;20101;-67
2022/03/10 01:25:28;;;;;;;24.52;14.02;;;1.10;99.90;;;;;;5098224;28;20040;-67
2022/03/10 01:27:54;;;;;;;23.48;13.65;;;1.10;99.90;;;;;;5098653;28;20021;-67
2022/03/10 01:30:20;;;;;;;22.48;13.30;;;1.10;99.90;;;;;;5089835;28;20035;-66
2022/03/10 01:32:46;;;;;;;26.67;14.30;;;1.10;99.90;;;;;;5095327;28;20040;-66
2022/03/10 01:35:13;;;;;;;26.55;13.77;;;1.10;99.90;;;;;;5102159;28;20092;-66
2022/03/10 01:37:39;;;;;;;24.15;13.75;;;1.30;99.90;;;;;;5091891;28;20032;-67
2022/03/10 01:40:07;;;;;;;30.75;15.40;;;1.40;99.90;;;;;;5100650;28;20161;-66
2022/03/10 01:42:32;;;;;;;24.60;14.73;;;1.50;99.90;;;;;;5095102;28;20035;-66
2022/03/10 01:44:58;;;;;;;24.63;14.27;;;1.50;99.90;;;;;;5083805;28;20032;-66
2022/03/10 01:47:24;;;;;;;27.30;15.68;;;1.50;99.90;;;;;;5093613;28;20091;-66
2022/03/10 01:49:53;;;;;;;27.13;15.45;;;1.40;99.90;;;;;;5092695;28;20062;-66
2022/03/10 01:52:20;;;;;;;24.15;13.88;;;1.40;99.90;;;;;;5088874;28;20453;-66
2022/03/10 01:54:46;;;;;;;26.40;15.50;;;1.30;99.90;;;;;;5084413;28;20028;-67
2022/03/10 01:57:11;;;;;;;23.08;13.73;;;1.20;99.90;;;;;;5092283;28;20110;-66
2022/03/10 01:59:39;;;;;;;25.50;14.40;;;1.10;99.90;;;;;;5094104;28;20047;-67
2022/03/10 02:02:06;;;;;;;29.10;15.13;;;1.00;99.90;;;;;;5094597;28;20484;-66
2022/03/10 02:04:31;;;;;;;22.73;14.13;;;1.00;99.90;;;;;;5086985;28;20052;-66
2022/03/10 02:06:58;;;;;;;24.25;13.38;;;1.10;99.90;;;;;;5087799;28;20052;-67
2022/03/10 02:12:08;;;;;;;26.00;13.52;;;1.10;99.90;;;;;;5097410;28;20044;-66
2022/03/10 02:17:20;;;;;;;25.05;14.10;;;1.10;99.90;;;;;;5096381;28;20051;-66
2022/03/10 02:19:51;;;;;;;25.67;13.65;;;1.20;99.90;;;;;;5098959;28;20043;-66
2022/03/10 02:22:18;;;;;;;21.43;12.73;;;1.30;99.90;;;;;;5098293;28;20032;-66
2022/03/10 02:24:44;;;;;;;23.67;14.02;;;1.50;99.90;;;;;;5087341;28;20439;-66
2022/03/10 02:27:14;;;;;;;24.02;13.35;;;1.60;99.90;;;;;;5085216;28;20363;-67
2022/03/10 02:29:43;;;;;;;27.65;14.70;;;1.60;99.90;;;;;;5087570;28;20507;-67
2022/03/10 02:32:09;;;;;;;28.40;14.88;;;1.60;99.90;;;;;;5096817;28;20028;-66
2022/03/10 02:34:34;;;;;;;25.58;14.00;;;1.70;99.90;;;;;;5097013;28;20043;-66
2022/03/10 02:37:00;;;;;;;24.35;14.23;;;1.70;99.90;;;;;;5077995;28;20020;-66
2022/03/10 02:39:26;;;;;;;25.60;14.43;;;1.70;99.90;;;;;;5095083;28;20031;-66
2022/03/10 02:41:51;;;;;;;25.70;13.45;;;1.50;99.90;;;;;;5087359;28;20036;-67
2022/03/10 02:44:17;;;;;;;24.67;13.40;;;1.40;99.90;;;;;;5092361;28;20036;-66
2022/03/10 02:46:43;;;;;;;27.05;14.35;;;1.40;99.90;;;;;;5094582;28;20032;-66
2022/03/10 02:49:08;;;;;;;24.35;14.38;;;1.30;99.90;;;;;;5096221;28;20482;-66
2022/03/10 02:51:34;;;;;;;25.70;14.13;;;1.40;99.90;;;;;;5099031;28;20036;-67
2022/03/10 02:53:59;;;;;;;28.27;15.23;;;1.30;99.90;;;;;;5097761;28;20041;-67
2022/03/10 02:56:25;;;;;;;25.83;14.25;;;1.30;99.90;;;;;;5101510;28;20036;-66
2022/03/10 02:58:51;;;;;;;26.25;14.50;;;1.30;99.90;;;;;;5104452;28;20088;-67
2022/03/10 03:01:16;;;;;;;26.60;15.15;;;1.40;99.90;;;;;;5093622;28;20025;-66
2022/03/10 03:03:42;;;;;;;29.00;14.45;;;1.60;99.90;;;;;;5102085;28;20032;-67
2022/03/10 03:06:08;;;;;;;25.50;14.43;;;1.60;99.90;;;;;;5086119;28;20059;-66
2022/03/10 03:08:34;;;;;;;25.77;13.73;;;1.70;99.90;;;;;;5101518;28;20058;-66
2022/03/10 03:11:00;;;;;;;28.33;15.23;;;1.70;99.90;;;;;;5100464;28;20085;-66
2022/03/10 03:13:26;;;;;;;26.63;14.38;;;1.60;99.90;;;;;;5091552;28;20078;-66
2022/03/10 03:15:51;;;;;;;25.83;14.35;;;1.60;99.90;;;;;;5092229;28;20028;-66
2022/03/10 03:18:17;;;;;;;26.23;14.52;;;1.70;99.90;;;;;;5116814;28;20023;-67
2022/03/10 03:20:43;;;;;;;26.50;15.15;;;1.80;99.90;;;;;;5107725;28;20078;-66
2022/03/10 03:23:09;;;;;;;28.27;15.75;;;1.70;99.90;;;;;;5098602;28;20035;-66
2022/03/10 03:25:34;;;;;;;27.38;14.90;;;1.80;99.90;;;;;;5096417;28;20036;-65
2022/03/10 03:28:00;;;;;;;24.33;14.18;;;1.80;99.90;;;;;;5103665;28;20028;-65
2022/03/10 03:30:26;;;;;;;29.15;14.95;;;1.70;99.90;;;;;;5102321;28;20028;-66
2022/03/10 03:32:52;;;;;;;27.55;15.15;;;1.60;99.90;;;;;;5100857;28;20042;-65
2022/03/10 03:35:18;;;;;;;25.85;14.63;;;1.50;99.90;;;;;;5101022;28;20119;-65
2022/03/10 03:37:43;;;;;;;28.10;14.73;;;1.60;99.90;;;;;;5099383;28;20020;-65
2022/03/10 03:40:10;;;;;;;26.00;14.52;;;1.50;99.90;;;;;;5101680;28;20040;-66
2022/03/10 03:42:36;;;;;;;30.38;14.48;;;1.50;99.90;;;;;;5093149;28;20020;-66
2022/03/10 03:45:03;;;;;;;29.95;15.07;;;1.50;99.90;;;;;;5102854;28;20540;-66
2022/03/10 03:47:28;;;;;;;21.67;13.27;;;1.50;99.90;;;;;;5098593;28;20036;-66
2022/03/10 03:49:55;;;;;;;25.27;14.35;;;1.50;99.90;;;;;;5098851;28;20032;-65
2022/03/10 03:52:20;;;;;;;24.48;14.30;;;1.50;99.90;;;;;;5094882;28;20036;-66
2022/03/10 03:54:46;;;;;;;24.25;14.15;;;1.60;99.90;;;;;;5086100;28;20032;-66
2022/03/10 03:57:12;;;;;;;24.75;14.63;;;1.50;99.90;;;;;;5099586;28;20028;-67
2022/03/10 03:59:37;;;;;;;28.98;14.00;;;1.50;99.90;;;;;;5094666;28;20034;-68
2022/03/10 04:02:03;;;;;;;26.15;14.43;;;1.40;99.90;;;;;;5098874;28;20036;-68
2022/03/10 04:04:29;;;;;;;28.75;14.05;;;1.30;99.90;;;;;;5103064;28;20040;-67
2022/03/10 04:06:55;;;;;;;25.05;13.70;;;1.20;99.90;;;;;;5094496;28;20040;-67
2022/03/10 04:09:21;;;;;;;24.38;13.77;;;1.20;99.90;;;;;;5085255;28;20033;-67
2022/03/10 04:11:47;;;;;;;26.05;14.57;;;1.30;99.90;;;;;;5097027;28;20105;-67
2022/03/10 04:14:15;;;;;;;27.17;13.93;;;1.30;99.90;;;;;;5101638;28;20080;-67
2022/03/10 04:16:41;;;;;;;26.83;14.70;;;1.30;99.90;;;;;;5082758;28;20028;-68
2022/03/10 04:19:07;;;;;;;28.83;14.65;;;1.30;99.90;;;;;;5098379;28;20074;-67
2022/03/10 04:21:35;;;;;;;27.80;14.60;;;1.20;99.90;;;;;;5100836;28;20032;-68
2022/03/10 04:24:00;;;;;;;25.70;13.95;;;1.20;99.90;;;;;;5088325;28;20044;-68
2022/03/10 04:26:26;;;;;;;25.10;14.45;;;1.20;99.90;;;;;;5085529;28;20380;-68
2022/03/10 04:28:52;;;;;;;26.55;14.10;;;1.10;99.90;;;;;;5097716;28;20056;-68
2022/03/10 04:31:17;;;;;;;24.83;14.73;;;1.10;99.90;;;;;;5091269;28;20021;-66
2022/03/10 04:33:43;;;;;;;26.13;14.23;;;1.10;99.90;;;;;;5098563;28;20028;-66
2022/03/10 04:36:09;;;;;;;24.80;13.80;;;1.10;99.90;;;;;;5099346;28;20057;-66
2022/03/10 04:38:35;;;;;;;24.02;13.65;;;1.10;99.90;;;;;;5097692;28;20020;-66
2022/03/10 04:41:00;;;;;;;24.42;13.27;;;1.10;99.90;;;;;;5092262;28;20028;-66
2022/03/10 04:43:26;;;;;;;26.10;13.55;;;1.10;99.90;;;;;;5085435;28;20032;-66
2022/03/10 04:45:52;;;;;;;23.17;13.32;;;1.10;99.90;;;;;;5097416;28;20024;-67
2022/03/10 04:48:18;;;;;;;23.10;13.65;;;1.10;99.90;;;;;;5079388;28;20031;-66
2022/03/10 04:50:44;;;;;;;30.60;13.95;;;1.10;99.90;;;;;;5096955;28;20035;-68
2022/03/10 04:53:09;;;;;;;23.75;13.10;;;1.10;99.90;;;;;;5102935;28;20032;-68
2022/03/10 04:55:35;;;;;;;24.33;13.77;;;1.10;99.90;;;;;;5102283;28;20060;-68
2022/03/10 04:58:01;;;;;;;24.80;14.40;;;1.20;99.90;;;;;;5099953;28;20070;-68
2022/03/10 05:00:27;;;;;;;28.58;14.23;;;1.20;99.90;;;;;;5098791;28;20024;-68
2022/03/10 05:02:52;;;;;;;22.92;12.98;;;1.20;99.90;;;;;;5099857;28;20040;-68
2022/03/10 05:05:18;;;;;;;28.63;13.75;;;1.20;99.90;;;;;;5092945;28;20051;-66
2022/03/10 05:07:45;;;;;;;24.48;13.68;;;1.10;99.90;;;;;;5092671;28;20055;-66
2022/03/10 05:10:12;;;;;;;21.95;12.65;;;1.20;99.90;;;;;;5101390;28;20020;-66
2022/03/10 05:13:04;;;;;;;25.73;14.88;;;1.20;99.90;;;;;;5098800;28;20032;-69
2022/03/10 05:15:31;;;;;;;23.23;12.75;;;1.20;99.90;;;;;;5085835;28;20100;-66
2022/03/10 05:17:58;;;;;;;27.55;14.63;;;1.20;99.90;;;;;;5097430;28;20105;-66
2022/03/10 05:20:25;;;;;;;26.00;14.00;;;1.10;99.90;;;;;;5092415;28;20062;-66
2022/03/10 05:22:56;;;;;;;23.48;13.38;;;1.10;99.90;;;;;;5094685;28;20021;-67
2022/03/10 05:25:24;;;;;;;25.52;13.55;;;1.10;99.90;;;;;;5096870;28;20059;-68
2022/03/10 05:27:51;;;;;;;25.02;14.18;;;1.10;99.90;;;;;;5095872;28;20028;-67
2022/03/10 05:30:19;;;;;;;26.15;13.75;;;1.00;99.90;;;;;;5097010;28;20054;-66
2022/03/10 05:32:45;;;;;;;25.67;13.40;;;0.90;99.90;;;;;;5091957;28;20052;-67
2022/03/10 05:35:14;;;;;;;27.02;14.02;;;0.90;99.90;;;;;;5093676;28;20027;-67
2022/03/10 05:37:40;;;;;;;25.17;14.45;;;0.90;99.90;;;;;;5097284;28;20500;-68
2022/03/10 05:40:09;;;;;;;24.02;13.98;;;0.80;99.90;;;;;;5090995;28;20070;-67
2022/03/10 05:42:37;;;;;;;25.65;13.60;;;0.80;99.90;;;;;;5093532;28;20028;-67
2022/03/10 05:45:03;;;;;;;25.40;14.45;;;0.80;99.90;;;;;;5085101;28;20123;-67
2022/03/10 05:47:28;;;;;;;28.52;14.40;;;0.80;99.90;;;;;;5091750;28;20477;-67
2022/03/10 05:49:54;;;;;;;27.77;14.27;;;0.90;99.90;;;;;;5092147;28;20032;-66
2022/03/10 05:52:20;;;;;;;27.95;14.68;;;0.80;99.90;;;;;;5090083;28;20028;-67
2022/03/10 05:54:46;;;;;;;29.45;14.77;;;0.80;99.90;;;;;;5096334;28;20465;-67
2022/03/10 05:57:11;;;;;;;24.55;14.30;;;0.90;99.90;;;;;;5098442;28;20814;-67
2022/03/10 05:59:37;;;;;;;26.15;15.00;;;0.80;99.90;;;;;;5091309;28;20036;-67
2022/03/10 06:02:02;;;;;;;28.90;14.98;;;0.90;99.90;;;;;;5097957;28;20052;-67
2022/03/10 06:04:28;;;;;;;24.98;13.88;;;0.90;99.90;;;;;;5093826;28;20064;-66
2022/03/10 06:06:54;;;;;;;25.80;14.27;;;0.80;99.90;;;;;;5094164;28;20052;-66
2022/03/10 06:09:21;;;;;;;24.35;13.65;;;0.80;99.90;;;;;;5097666;28;20066;-68
2022/03/10 06:11:46;;;;;;;25.40;13.18;;;0.70;99.90;;;;;;5097458;28;20055;-68
2022/03/10 06:14:12;;;;;;;24.20;14.10;;;0.70;99.90;;;;;;5100844;28;20017;-68
2022/03/10 06:16:38;;;;;;;22.60;13.25;;;0.60;99.90;;;;;;5094635;28;20013;-68
2022/03/10 06:19:04;;;;;;;23.63;13.30;;;0.60;99.90;;;;;;5100052;28;20070;-68
2022/03/10 06:21:29;;;;;;;25.17;13.95;;;0.60;99.90;;;;;;5098169;28;20033;-68
2022/03/10 06:23:55;;;;;;;23.73;12.75;;;0.70;99.90;;;;;;5099426;28;20473;-68
2022/03/10 06:26:21;;;;;;;22.65;13.73;;;0.70;99.90;;;;;;5084865;28;20036;-68
2022/03/10 06:28:47;;;;;;;25.95;13.50;;;0.80;99.90;;;;;;5100061;28;20089;-69
2022/03/10 06:31:15;;;;;;;28.17;14.57;;;0.90;99.90;;;;;;5098809;28;20158;-68
2022/03/10 06:33:41;;;;;;;27.80;14.48;;;0.90;99.90;;;;;;5097481;28;20032;-68
2022/03/10 06:36:06;;;;;;;26.00;14.27;;;1.10;99.90;;;;;;5090808;28;20102;-68
2022/03/10 06:38:36;;;;;;;26.25;14.40;;;1.20;99.90;;;;;;5098063;28;20028;-68
2022/03/10 06:41:03;;;;;;;26.35;14.57;;;1.40;99.90;;;;;;5101427;28;20020;-68
2022/03/10 06:43:28;;;;;;;28.05;14.13;;;1.40;99.90;;;;;;5096048;28;20032;-68
2022/03/10 06:45:54;;;;;;;28.08;14.88;;;1.50;99.90;;;;;;5098815;28;20020;-68
2022/03/10 06:48:20;;;;;;;26.67;14.25;;;1.60;99.90;;;;;;5093902;28;20051;-68
2022/03/10 06:50:45;;;;;;;24.30;13.90;;;1.70;99.90;;;;;;5090340;28;20071;-68
2022/03/10 06:53:12;;;;;;;26.63;13.98;;;1.70;99.90;;;;;;5095943;28;20084;-68
2022/03/10 06:55:43;;;;;;;26.27;14.07;;;1.70;99.90;;;;;;5094977;28;20135;-69
2022/03/10 06:58:08;;;;;;;24.58;14.77;;;1.70;99.90;;;;;;5094086;28;20485;-68
2022/03/10 07:00:34;;;;;;;25.83;13.85;;;1.70;99.90;;;;;;5096413;28;20088;-68
2022/03/10 07:03:00;;;;;;;26.50;13.45;;;1.70;99.90;;;;;;5098910;28;20050;-68
2022/03/10 07:05:26;;;;;;;23.42;13.60;;;1.80;99.90;;;;;;5089857;28;20478;-69
2022/03/10 07:07:51;;;;;;;23.45;13.93;;;1.90;99.90;;;;;;5090407;28;20082;-68
2022/03/10 07:10:17;;;;;;;23.00;13.27;;;2.00;99.90;;;;;;5095941;28;20070;-68
2022/03/10 07:12:43;;;;;;;27.45;14.10;;;2.10;99.90;;;;;;5085679;28;20043;-68
2022/03/10 07:15:11;;;;;;;26.20;14.05;;;2.20;99.90;;;;;;5099995;28;20036;-68
2022/03/10 07:17:38;;;;;;;23.30;13.10;;;2.20;99.90;;;;;;5090601;28;20020;-68
2022/03/10 07:20:04;;;;;;;27.38;14.00;;;2.30;99.90;;;;;;5091957;28;20063;-68
2022/03/10 07:22:30;;;;;;;24.35;13.65;;;2.40;99.90;;;;;;5096149;28;20095;-68
2022/03/10 07:24:56;;;;;;;25.58;14.45;;;2.40;99.90;;;;;;5062748;28;20060;-68
2022/03/10 07:27:21;;;;;;;25.05;13.95;;;2.50;99.90;;;;;;5096604;28;20032;-68
2022/03/10 07:29:47;;;;;;;26.15;13.65;;;2.50;99.90;;;;;;5093816;28;20036;-68
2022/03/10 07:32:13;;;;;;;26.63;14.20;;;2.70;99.90;;;;;;5097977;28;20027;-68
2022/03/10 07:34:39;;;;;;;26.45;14.90;;;2.80;99.90;;;;;;5094396;28;20020;-68
2022/03/10 07:37:05;;;;;;;27.38;14.50;;;2.80;99.90;;;;;;5094478;28;20421;-68
2022/03/10 07:39:30;;;;;;;26.95;13.70;;;2.90;99.90;;;;;;5093212;28;20036;-77
2022/03/10 07:41:56;;;;;;;25.00;14.27;;;3.00;99.90;;;;;;5059029;28;20032;-68
2022/03/10 07:44:22;;;;;;;24.30;13.77;;;3.10;99.90;;;;;;5095460;28;20048;-68
2022/03/10 07:46:48;;;;;;;25.02;14.05;;;3.10;99.90;;;;;;5091716;28;20368;-68
2022/03/10 07:49:13;;;;;;;26.60;14.57;;;3.30;99.90;;;;;;5095342;28;20021;-68
2022/03/10 07:51:42;;;;;;;23.98;13.90;;;3.30;99.90;;;;;;5093971;28;20458;-68
2022/03/10 07:54:09;;;;;;;25.40;13.45;;;3.40;99.90;;;;;;5081573;28;20052;-68
2022/03/10 07:56:34;;;;;;;24.98;14.50;;;3.60;99.90;;;;;;5090042;28;20390;-68
2022/03/10 07:59:00;;;;;;;22.63;13.18;;;3.70;99.90;;;;;;5085392;28;20072;-65
2022/03/10 08:01:25;;;;;;;21.67;13.88;;;3.80;99.90;;;;;;5088529;28;20111;-66
2022/03/10 08:03:51;;;;;;;26.40;14.52;;;3.90;99.90;;;;;;5095283;28;20040;-66
2022/03/10 08:06:17;;;;;;;23.70;14.23;;;4.00;99.90;;;;;;5097414;28;20040;-65
2022/03/10 08:08:44;;;;;;;23.95;13.48;;;4.10;99.90;;;;;;5104318;28;20024;-68
2022/03/10 08:11:10;;;;;;;26.15;14.82;;;4.20;99.90;;;;;;5101383;28;20055;-68
2022/03/10 08:13:36;;;;;;;25.38;13.93;;;4.30;99.90;;;;;;5084469;28;20040;-68
2022/03/10 08:16:02;;;;;;;25.08;14.15;;;4.40;99.90;;;;;;5086383;28;20422;-68
2022/03/10 08:18:29;;;;;;;24.17;14.13;;;4.50;99.90;;;;;;5086399;28;20024;-68
2022/03/10 08:20:56;;;;;;;26.10;13.98;;;4.60;99.90;;;;;;5082456;28;20036;-67
2022/03/10 08:23:22;;;;;;;23.23;13.48;;;4.70;99.90;;;;;;5083715;28;20025;-68
2022/03/10 08:25:50;;;;;;;24.55;14.25;;;4.80;99.90;;;;;;5098908;28;20518;-66
2022/03/10 08:28:16;;;;;;;25.05;14.15;;;5.00;99.90;;;;;;5087912;28;20035;-65
2022/03/10 08:30:42;;;;;;;25.75;13.48;;;5.10;99.90;;;;;;5082953;28;20028;-65
2022/03/10 08:33:08;;;;;;;24.85;13.63;;;5.20;99.90;;;;;;5082279;28;20038;-68
2022/03/10 08:35:33;;;;;;;25.52;14.90;;;5.50;99.90;;;;;;5085100;28;20040;-65
2022/03/10 08:38:02;;;;;;;24.40;14.70;;;5.90;99.90;;;;;;5082403;28;20028;-65
2022/03/10 08:40:28;;;;;;;24.90;15.13;;;6.20;99.90;;;;;;5085857;28;20061;-65
2022/03/10 08:42:55;;;;;;;25.77;14.52;;;7.40;99.90;;;;;;5081641;28;20036;-65
2022/03/10 08:45:25;;;;;;;25.08;14.75;;;9.30;99.90;;;;;;5098163;28;20097;-65
2022/03/10 08:47:51;;;;;;;21.73;13.88;;;11.10;77.00;;;;;;5084153;28;20120;-66
2022/03/10 08:50:17;;;;;;;23.48;14.70;;;12.70;72.50;;;;;;5097486;28;20028;-66
2022/03/10 08:52:43;;;;;;;23.67;14.32;;;14.20;61.50;;;;;;5098322;28;20027;-66
2022/03/10 08:55:10;;;;;;;23.45;14.73;;;15.30;51.80;;;;;;5100582;28;20035;-65
2022/03/10 08:57:36;;;;;;;23.77;13.48;;;16.10;51.10;;;;;;5092071;28;20429;-67
2022/03/10 09:00:04;;;;;;;23.38;14.68;;;17.00;48.40;;;;;;5099935;28;20058;-66
2022/03/10 09:02:30;;;;;;;22.33;14.35;;;17.60;43.70;;;;;;5093860;28;20452;-66
2022/03/10 09:04:56;;;;;;;23.17;13.90;;;17.90;43.00;;;;;;5098070;28;20050;-66
2022/03/10 09:07:22;;;;;;;23.65;14.27;;;18.50;41.50;;;;;;5097291;28;20075;-67
2022/03/10 09:09:48;;;;;;;21.80;14.45;;;18.60;39.40;;;;;;5102258;28;20420;-67
2022/03/10 09:12:13;;;;;;;21.77;13.60;;;19.00;40.10;;;;;;5096789;28;20022;-70
2022/03/10 09:14:39;;;;;;;23.52;13.93;;;18.60;39.50;;;;;;5097142;28;20016;-66
2022/03/10 09:17:05;;;;;;;23.00;14.35;;;18.50;39.10;;;;;;5094559;28;20389;-66
2022/03/10 09:19:30;;;;;;;22.17;14.75;;;18.80;38.40;;;;;;5101885;28;20031;-67
2022/03/10 09:21:56;;;;;;;22.85;14.68;;;19.40;39.40;;;;;;5092574;28;20024;-66
2022/03/10 09:24:22;;;;;;;20.70;14.25;;;20.00;38.50;;;;;;5094071;28;20079;-66
2022/03/10 09:26:48;;;;;;;22.42;13.95;;;20.20;37.50;;;;;;5100629;28;20074;-67
2022/03/10 09:29:14;;;;;;;23.08;14.13;;;19.90;36.20;;;;;;5095100;28;20020;-66
2022/03/10 09:31:39;;;;;;;21.83;14.35;;;18.00;37.50;;;;;;5101752;28;20024;-66
2022/03/10 09:34:05;;;;;;;23.83;14.23;;;16.90;39.50;;;;;;5100791;28;20477;-66
2022/03/10 09:36:31;;;;;;;20.23;14.40;;;16.70;41.10;;;;;;5098242;28;20028;-67
2022/03/10 09:38:57;;;;;;;21.48;12.75;;;16.00;42.70;;;;;;5102631;28;20297;-67
2022/03/10 09:41:24;;;;;;;20.83;13.70;;;15.00;42.10;;;;;;5098552;28;20077;-66
2022/03/10 09:43:50;;;;;;;23.25;14.57;;;15.20;46.90;;;;;;5096572;28;20371;-67
2022/03/10 09:46:16;;;;;;;22.75;14.70;;;14.90;46.10;;;;;;5089428;28;20442;-67
2022/03/10 09:48:42;;;;;;;20.80;13.75;;;15.00;47.80;;;;;;5099956;28;20183;-67
2022/03/10 09:51:09;;;;;;;22.85;14.35;;;14.90;46.30;;;;;;5098385;28;20058;-67
2022/03/10 09:53:36;;;;;;;20.75;13.40;;;15.20;48.40;;;;;;5099629;28;20091;-67
2022/03/10 09:56:03;;;;;;;22.58;14.30;;;15.40;45.90;;;;;;5097723;28;20020;-67
2022/03/10 09:58:30;;;;;;;20.67;13.43;;;15.70;44.70;;;;;;5095871;28;20435;-67
2022/03/10 10:01:06;;;;;;;21.25;14.50;;;16.80;42.50;;;;;;5094418;28;20022;-67
2022/03/10 10:03:33;;;;;;;24.80;14.15;;;17.90;40.80;;;;;;5083025;28;20033;-69
2022/03/10 10:06:00;;;;;;;22.27;13.55;;;19.20;37.50;;;;;;5093412;28;20050;-68
2022/03/10 10:08:27;;;;;;;21.25;14.65;;;20.40;37.90;;;;;;5096020;28;20420;-67
2022/03/10 10:10:56;;;;;;;20.42;14.75;;;20.90;35.60;;;;;;5099845;28;20040;-68
2022/03/10 10:13:32;;;;;;;20.80;13.55;;;21.80;34.60;;;;;;5086938;28;20035;-67
2022/03/10 10:16:09;;;;;;;19.40;14.02;;;21.70;31.70;;;;;;5092855;28;20028;-68
2022/03/10 10:18:38;;;;;;;22.48;14.20;;;22.00;32.90;;;;;;5090249;28;20051;-68
2022/03/10 10:21:05;;;;;;;23.48;15.13;;;22.90;32.60;;;;;;5082028;28;20028;-67
2022/03/10 10:23:36;;;;;;;19.90;14.57;;;23.20;32.60;;;;;;5088037;28;20031;-68
2022/03/10 10:26:02;;;;;;;20.02;14.90;;;23.60;29.30;;;;;;5093267;28;20020;-67
2022/03/10 10:28:34;;;;;;;24.20;15.35;;;22.20;31.30;;;;;;5085273;28;20048;-67
2022/03/10 10:31:02;;;;;;;20.35;14.30;;;23.70;30.20;;;;;;5093570;28;20028;-68
2022/03/10 10:33:31;;;;;;;21.15;15.23;;;23.40;29.60;;;;;;5087317;28;20044;-69
2022/03/10 10:36:15;;;;;;;20.60;13.98;;;24.00;30.40;;;;;;5086788;28;20028;-68
2022/03/10 10:38:42;;;;;;;20.65;13.70;;;25.50;30.20;;;;;;5087646;28;20082;-68
2022/03/10 10:41:34;;;;;;;21.75;14.70;;;26.20;29.50;;;;;;5087661;28;20056;-68
2022/03/10 10:44:08;;;;;;;20.92;14.60;;;26.70;29.60;;;;;;5086396;28;20048;-68
2022/03/10 10:46:39;;;;;;;23.50;14.93;;;27.10;28.80;;;;;;5070269;28;21233;-69
2022/03/10 10:49:11;;;;;;;20.85;15.05;;;26.80;28.20;;;;;;5088432;28;20456;-68
2022/03/10 10:51:43;;;;;;;23.75;15.27;;;25.30;26.50;;;;;;5086906;28;20083;-68
2022/03/10 10:54:29;;;;;;;20.83;15.23;;;25.80;28.20;;;;;;5085436;28;20025;-68
2022/03/10 10:56:55;;;;;;;22.02;14.52;;;26.50;28.00;;;;;;5087126;28;20027;-68
2022/03/10 10:59:41;;;;;;;21.95;15.20;;;26.60;27.30;;;;;;5087587;28;20020;-67
2022/03/10 11:02:21;;;;;;;23.48;14.15;;;25.10;27.50;;;;;;5090756;28;20031;-68
2022/03/10 11:04:49;;;;;;;23.15;15.48;;;26.60;28.30;;;;;;5092493;28;20040;-67
2022/03/10 11:07:16;;;;;;;20.77;14.98;;;27.70;28.10;;;;;;5090631;28;20047;-69
2022/03/10 11:09:44;;;;;;;20.05;14.80;;;28.00;27.90;;;;;;5093491;28;20426;-68
2022/03/10 11:12:15;;;;;;;22.42;15.63;;;28.20;27.50;;;;;;5088398;28;20054;-68
2022/03/10 11:14:42;;;;;;;23.30;15.63;;;27.70;27.90;;;;;;5092293;28;20025;-68
2022/03/10 11:17:08;;;;;;;23.27;16.13;;;27.70;26.10;;;;;;5092396;28;20070;-68
2022/03/10 11:19:41;;;;;;;25.15;15.40;;;27.70;27.40;;;;;;5089734;28;20266;-68
2022/03/10 11:22:10;;;;;;;20.98;15.75;;;28.20;27.50;;;;;;5089631;28;20055;-68
2022/03/10 11:25:12;;;;;;;22.52;15.80;;;28.30;26.80;;;;;;5091539;28;20035;-68
2022/03/10 11:27:51;;;;;;;23.70;15.80;;;28.20;26.80;;;;;;5094682;28;20059;-68
2022/03/10 11:30:22;;;;;;;28.75;16.10;;;28.20;26.60;;;;;;5092529;28;20032;-68
2022/03/10 11:33:09;;;;;;;;;;;27.80;25.10;;;;;;5092881;28;20043;-68
2022/03/10 11:35:45;;;;;;;23.20;15.88;;;28.30;26.40;;;;;;5085135;28;19908;-69
2022/03/10 11:38:13;;;;;;;22.98;15.82;;;28.00;26.20;;;;;;5089821;28;20064;-68
2022/03/10 11:40:54;;;;;;;21.63;15.25;;;27.90;25.80;;;;;;5090790;28;20024;-68
2022/03/10 11:43:32;;;;;;;22.80;15.32;;;27.60;25.50;;;;;;5080580;28;20024;-68
2022/03/10 11:46:21;;;;;;;23.05;16.35;;;28.00;26.80;;;;;;5093511;28;20056;-68
2022/03/10 11:49:06;;;;;;;27.10;17.10;;;28.40;26.90;;;;;;5083456;28;20020;-86
2022/03/10 11:51:52;;;;;;;24.33;15.52;;;28.50;26.00;;;;;;5096712;28;20051;-71
2022/03/10 11:54:23;;;;;;;24.30;16.20;;;27.70;25.40;;;;;;5092833;28;20031;-68
2022/03/10 11:56:50;;;;;;;20.88;15.00;;;27.30;26.10;;;;;;5089790;28;20036;-69
2022/03/10 11:59:38;;;;;;;26.67;16.90;;;28.40;27.00;;;;;;5091077;28;20028;-69
2022/03/10 12:02:04;;;;;;;24.63;16.85;;;28.60;25.40;;;;;;5083103;28;20062;-70
2022/03/10 12:04:41;;;;;;;25.50;16.38;;;28.20;26.00;;;;;;5088971;28;20071;-68
2022/03/10 12:07:16;;;;;;;22.25;15.23;;;28.00;25.30;;;;;;5087411;28;20052;-68
2022/03/10 12:09:59;;;;;;;22.73;15.82;;;28.80;26.20;;;;;;5090761;28;20019;-68
2022/03/10 12:12:26;;;;;;;25.45;15.88;;;29.10;25.90;;;;;;5087931;28;20052;-68
2022/03/10 12:14:56;;;;;;;25.00;16.38;;;29.00;26.10;;;;;;5089943;28;20119;-69
2022/03/10 12:17:49;;;;;;;23.80;15.85;;;28.70;25.70;;;;;;5092696;28;20408;-69
2022/03/10 12:20:16;;;;;;;27.70;16.33;;;29.60;25.50;;;;;;5092374;28;20669;-68
2022/03/10 12:23:03;;;;;;;23.35;15.23;;;28.80;25.50;;;;;;5090691;28;20028;-68
2022/03/10 12:25:40;;;;;;;23.88;16.05;;;28.20;25.50;;;;;;5088427;28;20028;-68
2022/03/10 12:28:06;;;;;;;25.02;16.00;;;28.60;25.80;;;;;;5089533;28;20036;-72
2022/03/10 12:30:39;;;;;;;24.95;15.85;;;27.90;25.00;;;;;;5076358;28;20031;-67
2022/03/10 12:33:05;;;;;;;26.52;17.08;;;28.00;25.80;;;;;;5093605;28;20028;-73
2022/03/10 12:35:35;;;;;;;22.30;15.32;;;27.70;25.40;;;;;;5089694;28;20427;-68
2022/03/10 12:38:01;;;;;;;24.63;15.57;;;26.50;25.20;;;;;;5088693;28;20032;-68
2022/03/10 12:40:30;;;;;;;25.05;16.15;;;27.70;26.30;;;;;;5083592;28;20395;-68